sensor_id;sensor_type;location;lat;lon;timestamp;pressure;altitude;pressure_sealevel;temperature;humidity
44297;BME280;51842;47.450;8.654;2023-04-23T00:00:53;95036.13;;;11.23;81.92
44297;BME280;51842;47.450;8.654;2023-04-23T00:03:23;95040.13;;;11.21;81.87
44297;BME280;51842;47.450;8.654;2023-04-23T00:05:51;95039.88;;;11.22;82.47
44297;BME280;51842;47.450;8.654;2023-04-23T00:08:19;95033.22;;;11.20;83.57
44297;BME280;51842;47.450;8.654;2023-04-23T00:10:46;95046.59;;;11.15;82.06
44297;BME280;51842;47.450;8.654;2023-04-23T00:13:12;95041.56;;;11.13;82.27
44297;BME280;51842;47.450;8.654;2023-04-23T00:15:38;95047.69;;;11.14;82.69
44297;BME280;51842;47.450;8.654;2023-04-23T00:18:04;95044.22;;;11.13;83.13
44297;BME280;51842;47.450;8.654;2023-04-23T00:20:30;95047.16;;;11.11;82.74
44297;BME280;51842;47.450;8.654;2023-04-23T00:22:56;95047.94;;;11.12;83.80
44297;BME280;51842;47.450;8.654;2023-04-23T00:25:22;95048.50;;;11.09;84.12
44297;BME280;51842;47.450;8.654;2023-04-23T00:27:48;95053.03;;;11.08;84.24
44297;BME280;51842;47.450;8.654;2023-04-23T00:30:14;95054.13;;;11.07;84.20
44297;BME280;51842;47.450;8.654;2023-04-23T00:32:41;95052.03;;;11.04;83.89
44297;BME280;51842;47.450;8.654;2023-04-23T00:35:07;95062.69;;;11.04;84.14
44297;BME280;51842;47.450;8.654;2023-04-23T00:37:33;95067.78;;;11.01;84.39
44297;BME280;51842;47.450;8.654;2023-04-23T00:39:58;95073.13;;;10.96;84.55
44297;BME280;51842;47.450;8.654;2023-04-23T00:42:24;95058.22;;;10.95;84.33
44297;BME280;51842;47.450;8.654;2023-04-23T00:44:51;95069.16;;;10.93;84.04
44297;BME280;51842;47.450;8.654;2023-04-23T00:47:17;95066.56;;;10.88;83.87
44297;BME280;51842;47.450;8.654;2023-04-23T00:49:45;95071.34;;;10.86;84.69
44297;BME280;51842;47.450;8.654;2023-04-23T00:52:11;95067.66;;;10.82;84.47
44297;BME280;51842;47.450;8.654;2023-04-23T00:54:37;95067.09;;;10.85;85.78
44297;BME280;51842;47.450;8.654;2023-04-23T00:57:02;95067.38;;;10.83;86.26
44297;BME280;51842;47.450;8.654;2023-04-23T00:59:30;95065.25;;;10.80;86.70
44297;BME280;51842;47.450;8.654;2023-04-23T01:01:57;95075.44;;;10.73;87.44
44297;BME280;51842;47.450;8.654;2023-04-23T01:04:27;95074.38;;;10.74;87.77
44297;BME280;51842;47.450;8.654;2023-04-23T01:06:56;95072.81;;;10.68;87.24
44297;BME280;51842;47.450;8.654;2023-04-23T01:09:24;95072.31;;;10.66;88.33
44297;BME280;51842;47.450;8.654;2023-04-23T01:11:52;95074.97;;;10.66;88.74
44297;BME280;51842;47.450;8.654;2023-04-23T01:14:18;95071.78;;;10.59;89.48
44297;BME280;51842;47.450;8.654;2023-04-23T01:16:44;95072.31;;;10.61;90.54
44297;BME280;51842;47.450;8.654;2023-04-23T01:19:10;95077.94;;;10.59;90.98
44297;BME280;51842;47.450;8.654;2023-04-23T01:21:38;95075.53;;;10.58;91.44
44297;BME280;51842;47.450;8.654;2023-04-23T01:24:09;95072.63;;;10.54;92.41
44297;BME280;51842;47.450;8.654;2023-04-23T01:26:35;95065.75;;;10.48;93.33
44297;BME280;51842;47.450;8.654;2023-04-23T01:29:01;95075.09;;;10.46;93.74
44297;BME280;51842;47.450;8.654;2023-04-23T01:31:29;95085.50;;;10.42;94.35
44297;BME280;51842;47.450;8.654;2023-04-23T01:33:56;95083.66;;;10.37;94.93
44297;BME280;51842;47.450;8.654;2023-04-23T01:36:23;95079.69;;;10.35;95.36
44297;BME280;51842;47.450;8.654;2023-04-23T01:38:50;95081.56;;;10.29;96.30
44297;BME280;51842;47.450;8.654;2023-04-23T01:41:16;95084.78;;;10.26;97.17
44297;BME280;51842;47.450;8.654;2023-04-23T01:43:43;95085.59;;;10.22;97.51
44297;BME280;51842;47.450;8.654;2023-04-23T01:46:10;95087.97;;;10.23;97.70
44297;BME280;51842;47.450;8.654;2023-04-23T01:48:37;95088.50;;;10.20;97.82
44297;BME280;51842;47.450;8.654;2023-04-23T01:51:03;95085.31;;;10.18;97.81
44297;BME280;51842;47.450;8.654;2023-04-23T01:53:29;95085.34;;;10.13;98.77
44297;BME280;51842;47.450;8.654;2023-04-23T01:55:56;95094.66;;;10.10;99.54
44297;BME280;51842;47.450;8.654;2023-04-23T01:58:22;95089.09;;;10.07;99.49
44297;BME280;51842;47.450;8.654;2023-04-23T02:00:49;95092.56;;;10.02;99.87
44297;BME280;51842;47.450;8.654;2023-04-23T02:03:16;95093.34;;;10.03;100.00
44297;BME280;51842;47.450;8.654;2023-04-23T02:05:43;95081.97;;;9.97;100.00
44297;BME280;51842;47.450;8.654;2023-04-23T02:08:09;95081.44;;;9.95;100.00
44297;BME280;51842;47.450;8.654;2023-04-23T02:10:35;95076.41;;;9.88;100.00
44297;BME280;51842;47.450;8.654;2023-04-23T02:13:02;95077.75;;;9.86;100.00
44297;BME280;51842;47.450;8.654;2023-04-23T02:15:28;95079.88;;;9.84;100.00
44297;BME280;51842;47.450;8.654;2023-04-23T02:17:55;95092.13;;;9.80;100.00
44297;BME280;51842;47.450;8.654;2023-04-23T02:20:21;95094.53;;;9.76;100.00
44297;BME280;51842;47.450;8.654;2023-04-23T02:22:48;95091.88;;;9.71;100.00
44297;BME280;51842;47.450;8.654;2023-04-23T02:25:15;95092.41;;;9.68;100.00
44297;BME280;51842;47.450;8.654;2023-04-23T02:27:43;95092.94;;;9.70;100.00
44297;BME280;51842;47.450;8.654;2023-04-23T02:30:10;95092.16;;;9.69;100.00
44297;BME280;51842;47.450;8.654;2023-04-23T02:32:38;95098.56;;;9.68;100.00
44297;BME280;51842;47.450;8.654;2023-04-23T02:35:04;95098.56;;;9.68;100.00
44297;BME280;51842;47.450;8.654;2023-04-23T02:37:35;95091.91;;;9.66;100.00
44297;BME280;51842;47.450;8.654;2023-04-23T02:40:02;95088.47;;;9.65;100.00
44297;BME280;51842;47.450;8.654;2023-04-23T02:42:30;95090.59;;;9.63;100.00
44297;BME280;51842;47.450;8.654;2023-04-23T02:44:55;95085.25;;;9.63;100.00
44297;BME280;51842;47.450;8.654;2023-04-23T02:47:21;95090.84;;;9.62;100.00
44297;BME280;51842;47.450;8.654;2023-04-23T02:49:47;95091.91;;;9.61;100.00
44297;BME280;51842;47.450;8.654;2023-04-23T02:52:13;95095.66;;;9.60;100.00
44297;BME280;51842;47.450;8.654;2023-04-23T02:54:38;95091.91;;;9.61;100.00
44297;BME280;51842;47.450;8.654;2023-04-23T02:57:05;95078.91;;;9.59;100.00
44297;BME280;51842;47.450;8.654;2023-04-23T02:59:31;95071.97;;;9.58;100.00
44297;BME280;51842;47.450;8.654;2023-04-23T03:01:57;95076.78;;;9.51;100.00
44297;BME280;51842;47.450;8.654;2023-04-23T03:04:23;95074.41;;;9.49;100.00
44297;BME280;51842;47.450;8.654;2023-04-23T03:06:49;95073.59;;;9.49;100.00
44297;BME280;51842;47.450;8.654;2023-04-23T03:09:14;95077.59;;;9.46;100.00
44297;BME280;51842;47.450;8.654;2023-04-23T03:11:40;95083.44;;;9.48;100.00
44297;BME280;51842;47.450;8.654;2023-04-23T03:14:06;95078.09;;;9.48;100.00
44297;BME280;51842;47.450;8.654;2023-04-23T03:16:32;95074.13;;;9.46;100.00
44297;BME280;51842;47.450;8.654;2023-04-23T03:18:58;95070.66;;;9.45;100.00
44297;BME280;51842;47.450;8.654;2023-04-23T03:21:25;95068.56;;;9.42;100.00
44297;BME280;51842;47.450;8.654;2023-04-23T03:23:51;95067.75;;;9.42;100.00
44297;BME280;51842;47.450;8.654;2023-04-23T03:26:17;95074.94;;;9.41;100.00
44297;BME280;51842;47.450;8.654;2023-04-23T03:28:43;95069.63;;;9.41;100.00
44297;BME280;51842;47.450;8.654;2023-04-23T03:31:09;95062.97;;;9.39;100.00
44297;BME280;51842;47.450;8.654;2023-04-23T03:33:35;95072.03;;;9.38;100.00
44297;BME280;51842;47.450;8.654;2023-04-23T03:36:01;95071.50;;;9.36;100.00
44297;BME280;51842;47.450;8.654;2023-04-23T03:38:26;95070.69;;;9.35;100.00
44297;BME280;51842;47.450;8.654;2023-04-23T03:40:52;95071.50;;;9.36;100.00
44297;BME280;51842;47.450;8.654;2023-04-23T03:43:18;95072.81;;;9.33;100.00
44297;BME280;51842;47.450;8.654;2023-04-23T03:45:44;95070.16;;;9.33;100.00
44297;BME280;51842;47.450;8.654;2023-04-23T03:48:10;95065.91;;;9.32;100.00
44297;BME280;51842;47.450;8.654;2023-04-23T03:50:35;95070.44;;;9.32;100.00
44297;BME280;51842;47.450;8.654;2023-04-23T03:53:05;95060.84;;;9.31;100.00
44297;BME280;51842;47.450;8.654;2023-04-23T03:55:31;95073.34;;;9.30;100.00
44297;BME280;51842;47.450;8.654;2023-04-23T03:57:58;95073.34;;;9.30;100.00
44297;BME280;51842;47.450;8.654;2023-04-23T04:00:28;95070.44;;;9.32;100.00
44297;BME280;51842;47.450;8.654;2023-04-23T04:02:54;95073.09;;;9.32;100.00
44297;BME280;51842;47.450;8.654;2023-04-23T04:05:21;95067.78;;;9.32;100.00
44297;BME280;51842;47.450;8.654;2023-04-23T04:07:47;95078.41;;;9.32;100.00
44297;BME280;51842;47.450;8.654;2023-04-23T04:10:12;95065.13;;;9.32;100.00
44297;BME280;51842;47.450;8.654;2023-04-23T04:12:38;95064.59;;;9.30;100.00
44297;BME280;51842;47.450;8.654;2023-04-23T04:15:06;95063.81;;;9.29;100.00
44297;BME280;51842;47.450;8.654;2023-04-23T04:17:31;95060.34;;;9.29;100.00
44297;BME280;51842;47.450;8.654;2023-04-23T04:19:57;95064.59;;;9.30;100.00
44297;BME280;51842;47.450;8.654;2023-04-23T04:22:23;95056.91;;;9.28;100.00
44297;BME280;51842;47.450;8.654;2023-04-23T04:24:49;95052.13;;;9.25;100.00
44297;BME280;51842;47.450;8.654;2023-04-23T04:27:16;95054.00;;;9.24;100.00
44297;BME280;51842;47.450;8.654;2023-04-23T04:29:43;95054.78;;;9.25;100.00
44297;BME280;51842;47.450;8.654;2023-04-23T04:32:09;95055.81;;;9.24;100.00
44297;BME280;51842;47.450;8.654;2023-04-23T04:34:36;95046.81;;;9.25;100.00
44297;BME280;51842;47.450;8.654;2023-04-23T04:37:03;95047.84;;;9.24;100.00
44297;BME280;51842;47.450;8.654;2023-04-23T04:39:28;95053.44;;;9.22;100.00
44297;BME280;51842;47.450;8.654;2023-04-23T04:41:55;95057.97;;;9.22;100.00
44297;BME280;51842;47.450;8.654;2023-04-23T04:44:22;95060.34;;;9.23;100.00
44297;BME280;51842;47.450;8.654;2023-04-23T04:46:48;95055.03;;;9.23;100.00
44297;BME280;51842;47.450;8.654;2023-04-23T04:49:13;95050.50;;;9.24;100.00
44297;BME280;51842;47.450;8.654;2023-04-23T04:51:40;95048.94;;;9.23;100.00
44297;BME280;51842;47.450;8.654;2023-04-23T04:54:07;95051.59;;;9.23;100.00
44297;BME280;51842;47.450;8.654;2023-04-23T04:56:33;95049.47;;;9.25;100.00
44297;BME280;51842;47.450;8.654;2023-04-23T04:59:00;95053.72;;;9.26;100.00
44297;BME280;51842;47.450;8.654;2023-04-23T05:01:28;95053.16;;;9.29;100.00
44297;BME280;51842;47.450;8.654;2023-04-23T05:03:55;95053.72;;;9.31;100.00
44297;BME280;51842;47.450;8.654;2023-04-23T05:06:21;95058.50;;;9.34;100.00
44297;BME280;51842;47.450;8.654;2023-04-23T05:08:47;95057.13;;;9.37;100.00
44297;BME280;51842;47.450;8.654;2023-04-23T05:11:15;95057.41;;;9.40;100.00
44297;BME280;51842;47.450;8.654;2023-04-23T05:13:42;95059.25;;;9.40;100.00
44297;BME280;51842;47.450;8.654;2023-04-23T05:16:07;95057.66;;;9.44;100.00
44297;BME280;51842;47.450;8.654;2023-04-23T05:18:34;95057.13;;;9.47;100.00
44297;BME280;51842;47.450;8.654;2023-04-23T05:21:00;95052.84;;;9.51;100.00
44297;BME280;51842;47.450;8.654;2023-04-23T05:23:25;95044.59;;;9.53;100.00
44297;BME280;51842;47.450;8.654;2023-04-23T05:25:51;95038.22;;;9.54;100.00
44297;BME280;51842;47.450;8.654;2023-04-23T05:28:20;95048.03;;;9.58;100.00
44297;BME280;51842;47.450;8.654;2023-04-23T05:30:46;95053.09;;;9.60;100.00
44297;BME280;51842;47.450;8.654;2023-04-23T05:33:12;95057.88;;;9.63;100.00
44297;BME280;51842;47.450;8.654;2023-04-23T05:35:37;95060.00;;;9.66;100.00
44297;BME280;51842;47.450;8.654;2023-04-23T05:38:03;95057.06;;;9.67;100.00
44297;BME280;51842;47.450;8.654;2023-04-23T05:40:31;95065.81;;;9.68;100.00
44297;BME280;51842;47.450;8.654;2023-04-23T05:43:00;95062.09;;;9.74;100.00
44297;BME280;51842;47.450;8.654;2023-04-23T05:45:26;95057.03;;;9.72;100.00
44297;BME280;51842;47.450;8.654;2023-04-23T05:47:52;95050.91;;;9.77;100.00
44297;BME280;51842;47.450;8.654;2023-04-23T05:50:19;95044.53;;;9.78;100.00
44297;BME280;51842;47.450;8.654;2023-04-23T05:52:46;95050.59;;;9.84;100.00
44297;BME280;51842;47.450;8.654;2023-04-23T05:55:12;95058.84;;;9.87;100.00
44297;BME280;51842;47.450;8.654;2023-04-23T05:57:40;95058.03;;;9.92;100.00
44297;BME280;51842;47.450;8.654;2023-04-23T06:00:07;95050.06;;;9.92;100.00
44297;BME280;51842;47.450;8.654;2023-04-23T06:02:40;95043.94;;;9.96;100.00
44297;BME280;51842;47.450;8.654;2023-04-23T06:05:06;95049.19;;;10.07;100.00
44297;BME280;51842;47.450;8.654;2023-04-23T06:07:33;95044.09;;;10.15;100.00
44297;BME280;51842;47.450;8.654;2023-04-23T06:09:59;95063.75;;;10.19;100.00
44297;BME280;51842;47.450;8.654;2023-04-23T06:12:25;95067.47;;;10.24;100.00
44297;BME280;51842;47.450;8.654;2023-04-23T06:14:53;95066.16;;;10.26;100.00
44297;BME280;51842;47.450;8.654;2023-04-23T06:17:19;95064.53;;;10.30;100.00
44297;BME280;51842;47.450;8.654;2023-04-23T06:19:45;95063.19;;;10.33;100.00
44297;BME280;51842;47.450;8.654;2023-04-23T06:22:11;95062.88;;;10.39;100.00
44297;BME280;51842;47.450;8.654;2023-04-23T06:24:36;95057.28;;;10.41;100.00
44297;BME280;51842;47.450;8.654;2023-04-23T06:27:02;95054.63;;;10.41;100.00
44297;BME280;51842;47.450;8.654;2023-04-23T06:29:28;95049.84;;;10.38;100.00
44297;BME280;51842;47.450;8.654;2023-04-23T06:31:55;95049.81;;;10.43;100.00
44297;BME280;51842;47.450;8.654;2023-04-23T06:34:22;95041.78;;;10.48;100.00
44297;BME280;51842;47.450;8.654;2023-04-23T06:36:49;95037.19;;;10.59;100.00
44297;BME280;51842;47.450;8.654;2023-04-23T06:39:15;95039.50;;;10.71;100.00
44297;BME280;51842;47.450;8.654;2023-04-23T06:41:41;95038.13;;;10.78;100.00
44297;BME280;51842;47.450;8.654;2023-04-23T06:44:07;95031.38;;;10.86;100.00
44297;BME280;51842;47.450;8.654;2023-04-23T06:46:32;95031.06;;;10.93;100.00
44297;BME280;51842;47.450;8.654;2023-04-23T06:48:58;95028.81;;;11.05;100.00
44297;BME280;51842;47.450;8.654;2023-04-23T06:51:27;95016.78;;;11.13;100.00
44297;BME280;51842;47.450;8.654;2023-04-23T06:53:53;95014.50;;;11.25;100.00
44297;BME280;51842;47.450;8.654;2023-04-23T06:56:19;95018.53;;;11.46;100.00
44297;BME280;51842;47.450;8.654;2023-04-23T06:58:46;95028.25;;;11.61;100.00
44297;BME280;51842;47.450;8.654;2023-04-23T07:01:12;95019.06;;;11.72;100.00
44297;BME280;51842;47.450;8.654;2023-04-23T07:03:38;95009.53;;;11.90;100.00
44297;BME280;51842;47.450;8.654;2023-04-23T07:06:04;95004.06;;;12.00;98.04
44297;BME280;51842;47.450;8.654;2023-04-23T07:08:30;95005.03;;;12.10;97.35
44297;BME280;51842;47.450;8.654;2023-04-23T07:10:56;95003.16;;;12.10;95.94
44297;BME280;51842;47.450;8.654;2023-04-23T07:13:23;95003.28;;;12.19;95.65
44297;BME280;51842;47.450;8.654;2023-04-23T07:15:49;94987.56;;;12.17;95.09
44297;BME280;51842;47.450;8.654;2023-04-23T07:18:15;94990.59;;;12.11;94.45
44297;BME280;51842;47.450;8.654;2023-04-23T07:20:41;94985.16;;;12.16;94.19
44297;BME280;51842;47.450;8.654;2023-04-23T07:23:06;94987.50;;;12.22;94.16
44297;BME280;51842;47.450;8.654;2023-04-23T07:25:32;94988.72;;;12.30;95.35
44297;BME280;51842;47.450;8.654;2023-04-23T07:27:58;94978.97;;;12.39;95.03
44297;BME280;51842;47.450;8.654;2023-04-23T07:30:26;94970.72;;;12.55;93.81
44297;BME280;51842;47.450;8.654;2023-04-23T07:32:53;94967.38;;;12.95;94.21
44297;BME280;51842;47.450;8.654;2023-04-23T07:35:20;94968.19;;;13.24;89.64
44297;BME280;51842;47.450;8.654;2023-04-23T07:37:46;94971.09;;;13.41;88.23
44297;BME280;51842;47.450;8.654;2023-04-23T07:40:12;94977.75;;;13.43;85.02
44297;BME280;51842;47.450;8.654;2023-04-23T07:42:37;94971.91;;;13.55;85.82
44297;BME280;51842;47.450;8.654;2023-04-23T07:45:05;94965.25;;;13.80;86.78
44297;BME280;51842;47.450;8.654;2023-04-23T07:47:30;94966.50;;;13.97;85.12
44297;BME280;51842;47.450;8.654;2023-04-23T07:49:56;94964.41;;;14.07;82.13
44297;BME280;51842;47.450;8.654;2023-04-23T07:52:22;94964.38;;;14.21;81.25
44297;BME280;51842;47.450;8.654;2023-04-23T07:54:48;94967.00;;;14.35;79.98
44297;BME280;51842;47.450;8.654;2023-04-23T07:57:14;94970.00;;;14.33;78.59
44297;BME280;51842;47.450;8.654;2023-04-23T07:59:40;94965.69;;;14.46;78.99
44297;BME280;51842;47.450;8.654;2023-04-23T08:02:06;94952.88;;;14.43;75.86
44297;BME280;51842;47.450;8.654;2023-04-23T08:04:32;94957.56;;;14.51;75.18
44297;BME280;51842;47.450;8.654;2023-04-23T08:06:58;94953.69;;;14.66;75.70
44297;BME280;51842;47.450;8.654;2023-04-23T08:09:24;94958.88;;;14.85;75.76
44297;BME280;51842;47.450;8.654;2023-04-23T08:11:50;94954.22;;;14.99;73.93
44297;BME280;51842;47.450;8.654;2023-04-23T08:14:17;94952.50;;;14.95;71.12
44297;BME280;51842;47.450;8.654;2023-04-23T08:16:43;94961.59;;;14.94;69.88
44297;BME280;51842;47.450;8.654;2023-04-23T08:19:09;94949.19;;;14.98;70.47
44297;BME280;51842;47.450;8.654;2023-04-23T08:21:36;94952.06;;;15.10;71.37
44297;BME280;51842;47.450;8.654;2023-04-23T08:24:02;94938.44;;;15.29;71.04
44297;BME280;51842;47.450;8.654;2023-04-23T08:26:29;94939.44;;;15.42;69.78
44297;BME280;51842;47.450;8.654;2023-04-23T08:28:55;94948.38;;;15.68;68.76
44297;BME280;51842;47.450;8.654;2023-04-23T08:31:21;94945.09;;;15.80;68.71
44297;BME280;51842;47.450;8.654;2023-04-23T08:33:48;94945.41;;;15.79;66.57
44297;BME280;51842;47.450;8.654;2023-04-23T08:36:13;94938.47;;;15.78;69.58
44297;BME280;51842;47.450;8.654;2023-04-23T08:38:40;94941.19;;;15.86;68.40
44297;BME280;51842;47.450;8.654;2023-04-23T08:41:10;94935.63;;;15.91;67.36
44297;BME280;51842;47.450;8.654;2023-04-23T08:43:49;94939.13;;;15.92;69.99
44297;BME280;51842;47.450;8.654;2023-04-23T08:46:18;94933.59;;;15.97;68.82
44297;BME280;51842;47.450;8.654;2023-04-23T08:48:44;94934.25;;;16.03;68.62
44297;BME280;51842;47.450;8.654;2023-04-23T08:51:17;94935.97;;;16.16;68.21
44297;BME280;51842;47.450;8.654;2023-04-23T08:53:44;94938.97;;;16.23;66.44
44297;BME280;51842;47.450;8.654;2023-04-23T08:56:15;94943.28;;;16.24;66.71
44297;BME280;51842;47.450;8.654;2023-04-23T08:58:42;94932.84;;;16.14;66.02
44297;BME280;51842;47.450;8.654;2023-04-23T09:01:08;94938.22;;;16.14;64.58
44297;BME280;51842;47.450;8.654;2023-04-23T09:03:35;94927.44;;;16.23;67.71
44297;BME280;51842;47.450;8.654;2023-04-23T09:06:02;94929.19;;;16.53;65.40
44297;BME280;51842;47.450;8.654;2023-04-23T09:08:30;94927.72;;;16.73;64.34
44297;BME280;51842;47.450;8.654;2023-04-23T09:11:01;94934.53;;;16.88;63.20
44297;BME280;51842;47.450;8.654;2023-04-23T09:13:29;94928.50;;;17.00;62.38
44297;BME280;51842;47.450;8.654;2023-04-23T09:15:55;94931.31;;;17.12;64.24
44297;BME280;51842;47.450;8.654;2023-04-23T09:18:21;94926.22;;;17.19;61.07
44297;BME280;51842;47.450;8.654;2023-04-23T09:20:49;94920.16;;;17.40;64.24
44297;BME280;51842;47.450;8.654;2023-04-23T09:23:15;94915.00;;;17.55;60.43
44297;BME280;51842;47.450;8.654;2023-04-23T09:25:41;94915.22;;;17.71;59.53
44297;BME280;51842;47.450;8.654;2023-04-23T09:28:08;94913.78;;;17.74;59.14
44297;BME280;51842;47.450;8.654;2023-04-23T09:30:48;94914.25;;;17.76;58.18
44297;BME280;51842;47.450;8.654;2023-04-23T09:33:16;94908.91;;;17.67;57.81
44297;BME280;51842;47.450;8.654;2023-04-23T09:35:41;94901.03;;;17.62;57.99
44297;BME280;51842;47.450;8.654;2023-04-23T09:38:08;94895.94;;;17.61;59.07
44297;BME280;51842;47.450;8.654;2023-04-23T09:40:35;94899.84;;;17.80;58.49
44297;BME280;51842;47.450;8.654;2023-04-23T09:43:04;94887.03;;;17.98;58.47
44297;BME280;51842;47.450;8.654;2023-04-23T09:45:31;94875.59;;;18.22;60.10
44297;BME280;51842;47.450;8.654;2023-04-23T09:47:59;94874.63;;;18.27;58.62
44297;BME280;51842;47.450;8.654;2023-04-23T09:50:33;94868.09;;;18.61;60.64
44297;BME280;51842;47.450;8.654;2023-04-23T09:52:59;94856.28;;;18.87;55.34
44297;BME280;51842;47.450;8.654;2023-04-23T09:55:34;94859.25;;;19.18;55.24
44297;BME280;51842;47.450;8.654;2023-04-23T09:58:06;94863.84;;;19.30;56.33
44297;BME280;51842;47.450;8.654;2023-04-23T10:00:37;94866.69;;;19.46;55.47
44297;BME280;51842;47.450;8.654;2023-04-23T10:03:06;94859.47;;;19.62;53.83
44297;BME280;51842;47.450;8.654;2023-04-23T10:05:39;94859.72;;;19.70;53.06
44297;BME280;51842;47.450;8.654;2023-04-23T10:08:06;94857.22;;;19.77;52.90
44297;BME280;51842;47.450;8.654;2023-04-23T10:10:33;94862.03;;;19.96;53.36
44297;BME280;51842;47.450;8.654;2023-04-23T10:13:00;94861.31;;;20.11;52.73
44297;BME280;51842;47.450;8.654;2023-04-23T10:15:26;94849.22;;;20.21;51.97
44297;BME280;51842;47.450;8.654;2023-04-23T10:17:53;94853.25;;;20.27;52.77
44297;BME280;51842;47.450;8.654;2023-04-23T10:20:22;94862.22;;;20.15;50.45
44297;BME280;51842;47.450;8.654;2023-04-23T10:22:49;94851.78;;;20.29;50.43
44297;BME280;51842;47.450;8.654;2023-04-23T10:25:18;94850.47;;;20.23;49.27
44297;BME280;51842;47.450;8.654;2023-04-23T10:27:44;94844.28;;;20.51;50.45
44297;BME280;51842;47.450;8.654;2023-04-23T10:30:13;94845.88;;;20.52;49.49
44297;BME280;51842;47.450;8.654;2023-04-23T10:32:39;94846.16;;;20.63;49.40
44297;BME280;51842;47.450;8.654;2023-04-23T10:35:08;94835.91;;;20.84;49.07
44297;BME280;51842;47.450;8.654;2023-04-23T10:37:36;94833.00;;;20.93;48.66
44297;BME280;51842;47.450;8.654;2023-04-23T10:40:10;94826.91;;;21.12;49.35
44297;BME280;51842;47.450;8.654;2023-04-23T10:42:40;94825.50;;;21.49;47.32
44297;BME280;51842;47.450;8.654;2023-04-23T10:45:18;94820.88;;;21.85;48.14
44297;BME280;51842;47.450;8.654;2023-04-23T10:47:45;94820.25;;;21.57;46.03
44297;BME280;51842;47.450;8.654;2023-04-23T10:50:37;94826.38;;;21.54;48.01
44297;BME280;51842;47.450;8.654;2023-04-23T10:53:03;94817.13;;;21.74;48.56
44297;BME280;51842;47.450;8.654;2023-04-23T10:55:31;94815.25;;;21.94;47.63
44297;BME280;51842;47.450;8.654;2023-04-23T10:58:07;94812.28;;;22.18;48.06
44297;BME280;51842;47.450;8.654;2023-04-23T11:03:38;94813.03;;;22.58;47.13
44297;BME280;51842;47.450;8.654;2023-04-23T11:06:05;94817.34;;;23.01;43.67
44297;BME280;51842;47.450;8.654;2023-04-23T11:08:34;94805.06;;;22.88;41.95
44297;BME280;51842;47.450;8.654;2023-04-23T11:11:06;94804.00;;;22.50;43.79
44297;BME280;51842;47.450;8.654;2023-04-23T11:13:31;94808.19;;;22.67;42.23
44297;BME280;51842;47.450;8.654;2023-04-23T11:16:15;94799.53;;;23.04;43.54
44297;BME280;51842;47.450;8.654;2023-04-23T11:19:09;94801.53;;;22.87;44.06
44297;BME280;51842;47.450;8.654;2023-04-23T11:22:11;94794.97;;;22.89;44.45
44297;BME280;51842;47.450;8.654;2023-04-23T11:24:42;94797.59;;;23.04;43.74
44297;BME280;51842;47.450;8.654;2023-04-23T11:27:15;94791.88;;;23.36;43.03
44297;BME280;51842;47.450;8.654;2023-04-23T11:29:44;94794.34;;;23.71;42.90
44297;BME280;51842;47.450;8.654;2023-04-23T11:32:16;94792.56;;;24.13;41.90
44297;BME280;51842;47.450;8.654;2023-04-23T11:34:45;94782.28;;;23.99;40.98
44297;BME280;51842;47.450;8.654;2023-04-23T11:37:13;94781.22;;;23.77;41.91
44297;BME280;51842;47.450;8.654;2023-04-23T11:39:41;94782.03;;;23.51;42.90
44297;BME280;51842;47.450;8.654;2023-04-23T11:42:15;94775.63;;;23.66;41.79
44297;BME280;51842;47.450;8.654;2023-04-23T11:44:43;94775.72;;;23.70;42.03
44297;BME280;51842;47.450;8.654;2023-04-23T11:47:12;94777.09;;;23.60;42.26
44297;BME280;51842;47.450;8.654;2023-04-23T11:49:40;94764.72;;;23.93;41.32
44297;BME280;51842;47.450;8.654;2023-04-23T11:52:10;94759.75;;;23.98;43.33
44297;BME280;51842;47.450;8.654;2023-04-23T11:54:40;94757.88;;;23.72;41.55
44297;BME280;51842;47.450;8.654;2023-04-23T11:57:06;94749.38;;;24.08;40.51
44297;BME280;51842;47.450;8.654;2023-04-23T11:59:32;94759.72;;;23.95;41.09
44297;BME280;51842;47.450;8.654;2023-04-23T12:01:59;94752.84;;;23.74;41.54
44297;BME280;51842;47.450;8.654;2023-04-23T12:04:30;94750.94;;;24.09;39.34
44297;BME280;51842;47.450;8.654;2023-04-23T12:06:57;94753.91;;;24.30;40.41
44297;BME280;51842;47.450;8.654;2023-04-23T12:09:27;94749.56;;;24.59;39.07
44297;BME280;51842;47.450;8.654;2023-04-23T12:11:54;94744.69;;;24.79;37.78
44297;BME280;51842;47.450;8.654;2023-04-23T12:14:26;94741.84;;;24.31;40.32
44297;BME280;51842;47.450;8.654;2023-04-23T12:16:54;94740.09;;;24.90;37.94
44297;BME280;51842;47.450;8.654;2023-04-23T12:19:29;94736.53;;;25.27;38.85
44297;BME280;51842;47.450;8.654;2023-04-23T12:22:01;94731.72;;;25.76;38.20
44297;BME280;51842;47.450;8.654;2023-04-23T12:24:30;94725.81;;;25.59;39.78
44297;BME280;51842;47.450;8.654;2023-04-23T12:26:59;94733.38;;;25.84;38.57
44297;BME280;51842;47.450;8.654;2023-04-23T12:29:29;94727.25;;;26.08;37.16
44297;BME280;51842;47.450;8.654;2023-04-23T12:31:58;94723.69;;;25.97;38.93
44297;BME280;51842;47.450;8.654;2023-04-23T12:34:24;94719.41;;;26.03;35.53
44297;BME280;51842;47.450;8.654;2023-04-23T12:36:55;94711.44;;;25.70;36.02
44297;BME280;51842;47.450;8.654;2023-04-23T12:39:29;94709.84;;;25.54;35.36
44297;BME280;51842;47.450;8.654;2023-04-23T12:42:06;94706.50;;;25.86;37.52
44297;BME280;51842;47.450;8.654;2023-04-23T12:44:37;94695.50;;;25.79;36.50
44297;BME280;51842;47.450;8.654;2023-04-23T12:47:04;94700.28;;;25.93;35.56
44297;BME280;51842;47.450;8.654;2023-04-23T12:49:31;94698.38;;;25.27;34.83
44297;BME280;51842;47.450;8.654;2023-04-23T12:51:59;94689.44;;;25.27;34.12
44297;BME280;51842;47.450;8.654;2023-04-23T12:54:31;94687.88;;;25.29;35.64
44297;BME280;51842;47.450;8.654;2023-04-23T12:56:59;94686.75;;;24.82;36.18
44297;BME280;51842;47.450;8.654;2023-04-23T12:59:27;94687.53;;;24.83;36.91
44297;BME280;51842;47.450;8.654;2023-04-23T13:01:53;94681.97;;;24.68;35.35
44297;BME280;51842;47.450;8.654;2023-04-23T13:04:19;94683.75;;;24.95;37.27